UAKD

Details ICAO UAKD (DZN)
Name ZHEZKAZGAN
Region Kazakhstan and Kyrgyzstan
Timezone Asia/Almaty (UTC+6.0)
Plans Departing 6
Arriving 11
Stats Elevation 1,250 ft / 381 m (AMSL)
Location 47.708756° 67.739199°
Runways 1
Magnetic Variation 8.531° E
Sunrise 2017-12-13 03:10:38 UTC / 2017-12-13 09:10:38 Local
Sunset 2017-12-13 11:38:31 UTC / 2017-12-13 17:38:31 Local
Advertisement - Login to hide

Runways

ID Width Length Bearing (true) Bearing (mag) Surface Threshold Offset Overrun Length
04 138 ft / 42 m 8,512 ft / 2,594 m 51.57° 43.04° Concrete 0 ft / 0 m 0 ft / 0 m
22 138 ft / 42 m 8,512 ft / 2,594 m 231.59° 223.06° Concrete 0 ft / 0 m 0 ft / 0 m

Approach Navaids

Runway Type Ident Frequency Range Bearing (true) Bearing (mag) Slope Elevation
22 Localiser IGN 110.70 MHz 18 nm / 33 km 231.57° 223.04° - 1,250 ft / 381 m (AMSL)
22 Glidescope IGN 110.70 MHz 10 nm / 19 km 231.58° 223.05° 2.40° 1,250 ft / 381 m (AMSL)

Map

Weather


0- 5 10 15 20 25 30 35+ Temperature / ° C

Clouds and Precipitation
Forecast for 2017-12-13 12:00 UTC. Updated 2 hours ago

Ground ~20,000 ft ~40,000 ft Winds

METAR

UAKD 131100Z 05005MPS 7000 NSC M17/M18 Q1035 R04/390060 NOSIG RMK QFE742/0990

TAF

Not found

Frequencies

Tower 127.10 MHz TWR
Warning: Do not use this data for real-world aviation or navigation. No guarantee of current accuracy is given.